sensor_id;sensor_type;location;lat;lon;timestamp;pressure;altitude;pressure_sealevel;temperature;humidity
56604;BME280;42486;47.478;19.036;2022-10-22T00:00:55;100355.66;;;10.14;78.05
56604;BME280;42486;47.478;19.036;2022-10-22T00:03:58;100349.84;;;10.11;78.04
56604;BME280;42486;47.478;19.036;2022-10-22T00:07:01;100348.06;;;10.11;78.69
56604;BME280;42486;47.478;19.036;2022-10-22T00:10:04;100340.69;;;10.05;78.44
56604;BME280;42486;47.478;19.036;2022-10-22T00:13:13;100338.91;;;10.06;78.53
56604;BME280;42486;47.478;19.036;2022-10-22T00:16:23;100347.94;;;10.13;78.42
56604;BME280;42486;47.478;19.036;2022-10-22T00:19:27;100352.75;;;10.19;77.77
56604;BME280;42486;47.478;19.036;2022-10-22T00:22:37;100351.50;;;10.12;78.21
56604;BME280;42486;47.478;19.036;2022-10-22T00:25:44;100350.69;;;10.11;78.38
56604;BME280;42486;47.478;19.036;2022-10-22T00:28:51;100342.13;;;10.09;78.60
56604;BME280;42486;47.478;19.036;2022-10-22T00:32:07;100336.66;;;10.12;78.48
56604;BME280;42486;47.478;19.036;2022-10-22T00:35:11;100339.91;;;10.16;79.87
56604;BME280;42486;47.478;19.036;2022-10-22T00:38:16;100341.94;;;10.24;80.45
56604;BME280;42486;47.478;19.036;2022-10-22T00:41:20;100328.28;;;10.20;79.34
56604;BME280;42486;47.478;19.036;2022-10-22T00:51:04;100321.28;;;10.21;78.60
56604;BME280;42486;47.478;19.036;2022-10-22T00:54:09;100311.37;;;10.13;79.14
56604;BME280;42486;47.478;19.036;2022-10-22T01:01:11;100315.41;;;10.06;79.21
56604;BME280;42486;47.478;19.036;2022-10-22T01:04:22;100330.72;;;10.10;79.33
56604;BME280;42486;47.478;19.036;2022-10-22T01:07:25;100328.09;;;10.10;79.18
56604;BME280;42486;47.478;19.036;2022-10-22T01:10:41;100335.84;;;10.12;78.96
56604;BME280;42486;47.478;19.036;2022-10-22T01:14:11;100328.47;;;10.06;79.46
56604;BME280;42486;47.478;19.036;2022-10-22T01:17:28;100327.00;;;10.02;79.02
56604;BME280;42486;47.478;19.036;2022-10-22T01:20:50;100332.34;;;10.00;79.96
56604;BME280;42486;47.478;19.036;2022-10-22T01:27:06;100330.12;;;10.07;79.28
56604;BME280;42486;47.478;19.036;2022-10-22T01:30:14;100309.97;;;10.09;79.44
56604;BME280;42486;47.478;19.036;2022-10-22T01:33:19;100324.38;;;10.02;79.44
56604;BME280;42486;47.478;19.036;2022-10-22T01:37:00;100322.09;;;9.97;79.97
56604;BME280;42486;47.478;19.036;2022-10-22T01:40:03;100332.37;;;9.87;80.63
56604;BME280;42486;47.478;19.036;2022-10-22T01:43:07;100323.31;;;9.80;80.84
56604;BME280;42486;47.478;19.036;2022-10-22T01:46:10;100327.69;;;9.80;81.43
56604;BME280;42486;47.478;19.036;2022-10-22T01:49:26;100311.44;;;9.76;81.89
56604;BME280;42486;47.478;19.036;2022-10-22T01:56:17;100303.41;;;9.79;80.90
56604;BME280;42486;47.478;19.036;2022-10-22T02:02:48;100302.22;;;9.83;84.20
56604;BME280;42486;47.478;19.036;2022-10-22T02:06:13;100300.66;;;9.81;83.82
56604;BME280;42486;47.478;19.036;2022-10-22T02:09:28;100297.34;;;9.79;83.98
56604;BME280;42486;47.478;19.036;2022-10-22T02:12:32;100293.38;;;9.73;84.95
56604;BME280;42486;47.478;19.036;2022-10-22T02:15:47;100297.47;;;9.64;85.06
56604;BME280;42486;47.478;19.036;2022-10-22T02:18:52;100305.53;;;9.61;85.69
56604;BME280;42486;47.478;19.036;2022-10-22T02:21:59;100303.53;;;9.65;86.28
56604;BME280;42486;47.478;19.036;2022-10-22T02:25:06;100305.19;;;9.66;87.64
56604;BME280;42486;47.478;19.036;2022-10-22T02:28:23;100314.91;;;9.64;87.06
56604;BME280;42486;47.478;19.036;2022-10-22T02:31:37;100305.63;;;9.60;87.40
56604;BME280;42486;47.478;19.036;2022-10-22T02:34:46;100304.41;;;9.40;89.29
56604;BME280;42486;47.478;19.036;2022-10-22T02:37:49;100313.50;;;9.34;91.03
56604;BME280;42486;47.478;19.036;2022-10-22T02:41:03;100304.84;;;9.34;91.90
56604;BME280;42486;47.478;19.036;2022-10-22T02:44:14;100299.13;;;9.29;91.43
56604;BME280;42486;47.478;19.036;2022-10-22T02:47:22;100292.44;;;9.24;91.28
56604;BME280;42486;47.478;19.036;2022-10-22T02:50:33;100304.84;;;9.21;93.25
56604;BME280;42486;47.478;19.036;2022-10-22T02:53:40;100307.78;;;9.16;93.82
56604;BME280;42486;47.478;19.036;2022-10-22T02:56:57;100325.63;;;9.10;93.53
56604;BME280;42486;47.478;19.036;2022-10-22T03:00:00;100326.84;;;9.04;93.36
56604;BME280;42486;47.478;19.036;2022-10-22T03:03:08;100313.81;;;8.91;93.54
56604;BME280;42486;47.478;19.036;2022-10-22T03:06:12;100320.28;;;8.86;94.97
56604;BME280;42486;47.478;19.036;2022-10-22T03:09:15;100318.72;;;8.83;94.89
56604;BME280;42486;47.478;19.036;2022-10-22T03:12:24;100322.03;;;8.72;95.24
56604;BME280;42486;47.478;19.036;2022-10-22T03:15:38;100321.59;;;8.66;96.41
56604;BME280;42486;47.478;19.036;2022-10-22T03:18:54;100313.25;;;8.60;97.52
56604;BME280;42486;47.478;19.036;2022-10-22T03:22:00;100316.03;;;8.45;97.45
56604;BME280;42486;47.478;19.036;2022-10-22T03:25:23;100303.78;;;8.32;98.03
56604;BME280;42486;47.478;19.036;2022-10-22T03:28:28;100295.97;;;8.32;98.92
56604;BME280;42486;47.478;19.036;2022-10-22T03:31:35;100297.44;;;8.36;100.00
56604;BME280;42486;47.478;19.036;2022-10-22T03:34:41;100298.09;;;8.40;99.41
56604;BME280;42486;47.478;19.036;2022-10-22T03:37:45;100292.72;;;8.43;100.00
56604;BME280;42486;47.478;19.036;2022-10-22T03:40:53;100270.66;;;8.34;99.99
56604;BME280;42486;47.478;19.036;2022-10-22T03:43:56;100272.06;;;8.40;100.00
56604;BME280;42486;47.478;19.036;2022-10-22T03:47:01;100265.09;;;8.41;100.00
56604;BME280;42486;47.478;19.036;2022-10-22T03:50:19;100266.69;;;8.43;99.12
56604;BME280;42486;47.478;19.036;2022-10-22T03:53:26;100258.94;;;8.42;98.91
56604;BME280;42486;47.478;19.036;2022-10-22T03:56:30;100263.50;;;8.38;98.23
56604;BME280;42486;47.478;19.036;2022-10-22T03:59:37;100275.19;;;8.45;98.73
56604;BME280;42486;47.478;19.036;2022-10-22T04:02:52;100271.22;;;8.40;96.76
56604;BME280;42486;47.478;19.036;2022-10-22T04:05:59;100276.81;;;8.33;98.09
56604;BME280;42486;47.478;19.036;2022-10-22T04:09:05;100288.19;;;8.32;98.34
56604;BME280;42486;47.478;19.036;2022-10-22T04:12:14;100289.59;;;8.24;99.73
56604;BME280;42486;47.478;19.036;2022-10-22T04:15:18;100284.87;;;8.16;99.84
56604;BME280;42486;47.478;19.036;2022-10-22T04:22:01;100276.69;;;8.22;99.89
56604;BME280;42486;47.478;19.036;2022-10-22T04:25:07;100279.91;;;8.26;100.00
56604;BME280;42486;47.478;19.036;2022-10-22T04:28:12;100284.91;;;8.29;100.00
56604;BME280;42486;47.478;19.036;2022-10-22T04:31:21;100294.41;;;8.30;100.00
56604;BME280;42486;47.478;19.036;2022-10-22T04:34:41;100290.03;;;8.30;99.93
56604;BME280;42486;47.478;19.036;2022-10-22T04:37:43;100287.94;;;8.23;100.00
56604;BME280;42486;47.478;19.036;2022-10-22T04:41:15;100281.03;;;8.22;100.00
56604;BME280;42486;47.478;19.036;2022-10-22T04:44:21;100280.75;;;8.26;100.00
56604;BME280;42486;47.478;19.036;2022-10-22T04:47:24;100272.72;;;8.29;100.00
56604;BME280;42486;47.478;19.036;2022-10-22T04:54:17;100284.00;;;8.30;100.00
56604;BME280;42486;47.478;19.036;2022-10-22T04:57:32;100261.28;;;8.19;99.99
56604;BME280;42486;47.478;19.036;2022-10-22T05:00:37;100266.47;;;8.19;100.00
56604;BME280;42486;47.478;19.036;2022-10-22T05:03:51;100268.75;;;8.24;99.73
56604;BME280;42486;47.478;19.036;2022-10-22T05:10:19;100269.78;;;8.21;97.37
56604;BME280;42486;47.478;19.036;2022-10-22T05:13:34;100275.81;;;8.22;97.86
56604;BME280;42486;47.478;19.036;2022-10-22T05:16:40;100284.50;;;8.22;98.28
56604;BME280;42486;47.478;19.036;2022-10-22T05:19:52;100269.91;;;8.20;97.10
56604;BME280;42486;47.478;19.036;2022-10-22T05:22:55;100281.16;;;8.20;97.25
56604;BME280;42486;47.478;19.036;2022-10-22T05:26:15;100286.34;;;8.20;96.29
56604;BME280;42486;47.478;19.036;2022-10-22T05:29:33;100281.34;;;8.17;96.76
56604;BME280;42486;47.478;19.036;2022-10-22T05:32:36;100278.97;;;8.27;96.12
56604;BME280;42486;47.478;19.036;2022-10-22T05:35:38;100276.38;;;8.27;96.79
56604;BME280;42486;47.478;19.036;2022-10-22T05:38:51;100293.84;;;8.39;96.29
56604;BME280;42486;47.478;19.036;2022-10-22T05:41:53;100286.94;;;8.38;95.07
56604;BME280;42486;47.478;19.036;2022-10-22T05:44:55;100275.66;;;8.37;95.89
56604;BME280;42486;47.478;19.036;2022-10-22T05:47:58;100281.44;;;8.43;95.78
56604;BME280;42486;47.478;19.036;2022-10-22T05:51:02;100278.31;;;8.50;96.44
56604;BME280;42486;47.478;19.036;2022-10-22T05:54:08;100286.38;;;8.60;95.49
56604;BME280;42486;47.478;19.036;2022-10-22T05:57:12;100292.94;;;8.66;95.46
56604;BME280;42486;47.478;19.036;2022-10-22T06:00:21;100299.31;;;8.74;95.60
56604;BME280;42486;47.478;19.036;2022-10-22T06:03:31;100300.47;;;8.83;95.27
56604;BME280;42486;47.478;19.036;2022-10-22T06:06:35;100299.62;;;8.82;95.62
56604;BME280;42486;47.478;19.036;2022-10-22T06:09:40;100306.19;;;8.88;94.45
56604;BME280;42486;47.478;19.036;2022-10-22T06:12:47;100311.75;;;8.96;94.52
56604;BME280;42486;47.478;19.036;2022-10-22T06:15:50;100322.03;;;8.98;95.31
56604;BME280;42486;47.478;19.036;2022-10-22T06:18:54;100322.47;;;8.92;90.09
56604;BME280;42486;47.478;19.036;2022-10-22T06:22:00;100324.87;;;8.95;92.19
56604;BME280;42486;47.478;19.036;2022-10-22T06:25:05;100313.41;;;8.97;89.61
56604;BME280;42486;47.478;19.036;2022-10-22T06:28:09;100321.00;;;9.13;88.96
56604;BME280;42486;47.478;19.036;2022-10-22T06:31:12;100317.47;;;9.27;89.28
56604;BME280;42486;47.478;19.036;2022-10-22T06:34:16;100324.22;;;9.42;89.95
56604;BME280;42486;47.478;19.036;2022-10-22T06:37:19;100331.53;;;9.50;89.43
56604;BME280;42486;47.478;19.036;2022-10-22T06:40:23;100330.34;;;9.67;90.17
56604;BME280;42486;47.478;19.036;2022-10-22T06:43:29;100334.47;;;9.82;86.22
56604;BME280;42486;47.478;19.036;2022-10-22T06:46:33;100339.38;;;9.87;83.52
56604;BME280;42486;47.478;19.036;2022-10-22T06:50:12;100347.34;;;10.09;83.56
56604;BME280;42486;47.478;19.036;2022-10-22T06:53:29;100355.81;;;10.37;84.54
56604;BME280;42486;47.478;19.036;2022-10-22T06:56:43;100346.59;;;10.44;82.25
56604;BME280;42486;47.478;19.036;2022-10-22T06:59:47;100341.97;;;10.72;81.70
56604;BME280;42486;47.478;19.036;2022-10-22T07:02:59;100339.97;;;10.98;79.38
56604;BME280;42486;47.478;19.036;2022-10-22T07:06:27;100339.31;;;11.18;78.08
56604;BME280;42486;47.478;19.036;2022-10-22T07:09:47;100338.16;;;11.34;75.54
56604;BME280;42486;47.478;19.036;2022-10-22T07:13:10;100343.97;;;11.26;79.24
56604;BME280;42486;47.478;19.036;2022-10-22T07:16:34;100337.06;;;11.25;74.76
56604;BME280;42486;47.478;19.036;2022-10-22T07:19:36;100335.47;;;11.00;76.49
56604;BME280;42486;47.478;19.036;2022-10-22T07:22:54;100335.87;;;11.07;76.67
56604;BME280;42486;47.478;19.036;2022-10-22T07:26:00;100325.25;;;10.97;78.61
56604;BME280;42486;47.478;19.036;2022-10-22T07:29:09;100328.59;;;10.88;77.81
56604;BME280;42486;47.478;19.036;2022-10-22T07:32:11;100336.25;;;10.78;78.87
56604;BME280;42486;47.478;19.036;2022-10-22T07:35:14;100333.66;;;10.78;79.35
56604;BME280;42486;47.478;19.036;2022-10-22T07:38:21;100326.31;;;10.83;80.08
56604;BME280;42486;47.478;19.036;2022-10-22T07:41:23;100322.06;;;10.93;81.38
56604;BME280;42486;47.478;19.036;2022-10-22T07:44:25;100335.22;;;10.80;78.11
56604;BME280;42486;47.478;19.036;2022-10-22T07:47:29;100326.81;;;11.11;78.14
56604;BME280;42486;47.478;19.036;2022-10-22T07:50:35;100317.47;;;11.42;76.85
56604;BME280;42486;47.478;19.036;2022-10-22T07:53:44;100324.94;;;11.58;73.53
56604;BME280;42486;47.478;19.036;2022-10-22T07:56:53;100330.41;;;11.55;73.75
56604;BME280;42486;47.478;19.036;2022-10-22T08:00:05;100332.53;;;11.72;71.98
56604;BME280;42486;47.478;19.036;2022-10-22T08:03:12;100341.31;;;11.82;72.15
56604;BME280;42486;47.478;19.036;2022-10-22T08:06:17;100338.56;;;12.06;74.99
56604;BME280;42486;47.478;19.036;2022-10-22T08:09:36;100335.75;;;12.30;71.83
56604;BME280;42486;47.478;19.036;2022-10-22T08:12:52;100327.69;;;12.54;69.97
56604;BME280;42486;47.478;19.036;2022-10-22T08:15:54;100337.00;;;12.80;72.04
56604;BME280;42486;47.478;19.036;2022-10-22T08:18:58;100342.66;;;13.06;67.99
56604;BME280;42486;47.478;19.036;2022-10-22T08:22:00;100339.44;;;13.44;63.27
56604;BME280;42486;47.478;19.036;2022-10-22T08:25:03;100336.50;;;13.68;62.50
56604;BME280;42486;47.478;19.036;2022-10-22T08:28:10;100338.56;;;13.64;60.83
56604;BME280;42486;47.478;19.036;2022-10-22T08:31:12;100342.28;;;13.72;61.54
56604;BME280;42486;47.478;19.036;2022-10-22T08:34:16;100336.41;;;13.99;61.33
56604;BME280;42486;47.478;19.036;2022-10-22T08:37:24;100339.09;;;14.28;59.86
56604;BME280;42486;47.478;19.036;2022-10-22T08:40:32;100342.81;;;14.06;61.01
56604;BME280;42486;47.478;19.036;2022-10-22T08:47:22;100347.03;;;13.87;61.47
56604;BME280;42486;47.478;19.036;2022-10-22T08:50:45;100345.75;;;13.62;61.79
56604;BME280;42486;47.478;19.036;2022-10-22T09:01:00;100336.09;;;13.73;62.88
56604;BME280;42486;47.478;19.036;2022-10-22T09:04:23;100353.91;;;13.69;64.21
56604;BME280;42486;47.478;19.036;2022-10-22T09:07:42;100334.97;;;13.65;62.75
56604;BME280;42486;47.478;19.036;2022-10-22T09:14:17;100354.03;;;13.68;66.47
56604;BME280;42486;47.478;19.036;2022-10-22T09:27:31;100338.41;;;13.66;63.83
56604;BME280;42486;47.478;19.036;2022-10-22T09:30:34;100335.91;;;13.55;63.76
56604;BME280;42486;47.478;19.036;2022-10-22T09:33:39;100344.63;;;13.65;66.02
56604;BME280;42486;47.478;19.036;2022-10-22T09:36:45;100350.75;;;13.75;68.10
56604;BME280;42486;47.478;19.036;2022-10-22T09:39:52;100355.19;;;13.84;69.13
56604;BME280;42486;47.478;19.036;2022-10-22T09:43:00;100367.25;;;13.97;66.03
56604;BME280;42486;47.478;19.036;2022-10-22T09:46:25;100363.34;;;13.81;63.65
56604;BME280;42486;47.478;19.036;2022-10-22T09:49:29;100360.84;;;13.80;63.79
56604;BME280;42486;47.478;19.036;2022-10-22T09:52:33;100360.44;;;13.84;68.62
56604;BME280;42486;47.478;19.036;2022-10-22T09:55:42;100347.03;;;13.87;66.58
56604;BME280;42486;47.478;19.036;2022-10-22T09:58:51;100340.84;;;13.88;65.48
56604;BME280;42486;47.478;19.036;2022-10-22T10:05:40;100344.19;;;14.20;64.76
56604;BME280;42486;47.478;19.036;2022-10-22T10:08:45;100348.34;;;14.13;62.56
56604;BME280;42486;47.478;19.036;2022-10-22T10:11:52;100350.03;;;14.23;64.63
56604;BME280;42486;47.478;19.036;2022-10-22T10:28:48;100325.16;;;14.57;62.82
56604;BME280;42486;47.478;19.036;2022-10-22T10:39:03;100319.59;;;14.50;63.43
56604;BME280;42486;47.478;19.036;2022-10-22T10:48:59;100325.28;;;14.84;65.36
56604;BME280;42486;47.478;19.036;2022-10-22T10:52:12;100330.62;;;15.02;65.46
56604;BME280;42486;47.478;19.036;2022-10-22T10:55:29;100336.19;;;14.99;62.28
56604;BME280;42486;47.478;19.036;2022-10-22T10:58:41;100339.31;;;15.12;65.01
56604;BME280;42486;47.478;19.036;2022-10-22T11:02:08;100345.16;;;15.16;64.55
56604;BME280;42486;47.478;19.036;2022-10-22T11:08:56;100346.38;;;15.22;67.71
56604;BME280;42486;47.478;19.036;2022-10-22T11:12:05;100344.75;;;15.48;63.19
56604;BME280;42486;47.478;19.036;2022-10-22T11:15:34;100343.34;;;15.54;62.11
56604;BME280;42486;47.478;19.036;2022-10-22T11:19:23;100340.75;;;15.44;65.08
56604;BME280;42486;47.478;19.036;2022-10-22T11:22:11;100328.28;;;15.46;62.58
56604;BME280;42486;47.478;19.036;2022-10-22T11:25:30;100329.47;;;15.24;66.58
56604;BME280;42486;47.478;19.036;2022-10-22T11:28:36;100322.28;;;15.16;66.08
56604;BME280;42486;47.478;19.036;2022-10-22T11:31:42;100326.44;;;15.19;67.88
56604;BME280;42486;47.478;19.036;2022-10-22T11:34:56;100309.78;;;15.18;67.13
56604;BME280;42486;47.478;19.036;2022-10-22T11:38:01;100296.47;;;15.30;67.22
56604;BME280;42486;47.478;19.036;2022-10-22T11:41:15;100299.78;;;15.32;62.97
56604;BME280;42486;47.478;19.036;2022-10-22T11:44:21;100302.66;;;15.11;63.55
56604;BME280;42486;47.478;19.036;2022-10-22T11:47:38;100294.59;;;15.12;64.59
56604;BME280;42486;47.478;19.036;2022-10-22T11:50:58;100295.50;;;15.31;64.49
56604;BME280;42486;47.478;19.036;2022-10-22T11:57:36;100288.53;;;15.67;64.75
56604;BME280;42486;47.478;19.036;2022-10-22T12:00:40;100291.31;;;15.66;65.60
56604;BME280;42486;47.478;19.036;2022-10-22T12:03:52;100292.72;;;15.60;69.71
56604;BME280;42486;47.478;19.036;2022-10-22T12:06:59;100291.31;;;15.66;67.04
56604;BME280;42486;47.478;19.036;2022-10-22T12:10:05;100291.47;;;15.64;65.04
56604;BME280;42486;47.478;19.036;2022-10-22T12:16:53;100278.56;;;15.61;67.88
56604;BME280;42486;47.478;19.036;2022-10-22T12:20:11;100284.50;;;15.73;67.14
56604;BME280;42486;47.478;19.036;2022-10-22T12:23:16;100281.19;;;15.61;65.46
56604;BME280;42486;47.478;19.036;2022-10-22T12:26:37;100273.16;;;15.62;68.70
56604;BME280;42486;47.478;19.036;2022-10-22T12:29:54;100269.47;;;15.55;67.38
56604;BME280;42486;47.478;19.036;2022-10-22T12:32:58;100269.66;;;15.44;67.37
56604;BME280;42486;47.478;19.036;2022-10-22T12:36:04;100266.81;;;15.37;69.31
56604;BME280;42486;47.478;19.036;2022-10-22T12:39:15;100262.56;;;15.27;70.35
56604;BME280;42486;47.478;19.036;2022-10-22T12:42:21;100265.22;;;15.17;71.80
56604;BME280;42486;47.478;19.036;2022-10-22T12:45:30;100260.81;;;15.08;74.16
56604;BME280;42486;47.478;19.036;2022-10-22T12:48:40;100265.97;;;15.00;74.02
56604;BME280;42486;47.478;19.036;2022-10-22T12:51:44;100268.06;;;14.86;73.97
56604;BME280;42486;47.478;19.036;2022-10-22T12:54:53;100272.28;;;14.79;77.74
56604;BME280;42486;47.478;19.036;2022-10-22T12:58:13;100272.81;;;14.73;75.81
56604;BME280;42486;47.478;19.036;2022-10-22T13:01:18;100268.00;;;14.68;77.43
56604;BME280;42486;47.478;19.036;2022-10-22T13:04:34;100270.06;;;14.65;79.40
56604;BME280;42486;47.478;19.036;2022-10-22T13:07:37;100272.03;;;14.63;80.64
56604;BME280;42486;47.478;19.036;2022-10-22T13:10:48;100267.19;;;14.58;80.14
56604;BME280;42486;47.478;19.036;2022-10-22T13:14:00;100275.50;;;14.53;78.50
56604;BME280;42486;47.478;19.036;2022-10-22T13:17:17;100274.66;;;14.53;78.55
56604;BME280;42486;47.478;19.036;2022-10-22T13:20:21;100273.84;;;14.52;79.98
56604;BME280;42486;47.478;19.036;2022-10-22T13:23:24;100268.84;;;14.49;80.29
56604;BME280;42486;47.478;19.036;2022-10-22T13:26:31;100273.09;;;14.50;84.12
56604;BME280;42486;47.478;19.036;2022-10-22T13:29:35;100263.84;;;14.56;85.69
56604;BME280;42486;47.478;19.036;2022-10-22T13:32:58;100266.19;;;14.59;84.19
56604;BME280;42486;47.478;19.036;2022-10-22T13:36:00;100256.25;;;14.63;82.69
56604;BME280;42486;47.478;19.036;2022-10-22T13:39:15;100269.12;;;14.66;82.02
56604;BME280;42486;47.478;19.036;2022-10-22T13:42:18;100262.44;;;14.71;83.02
56604;BME280;42486;47.478;19.036;2022-10-22T13:45:20;100264.25;;;14.71;74.37
56604;BME280;42486;47.478;19.036;2022-10-22T13:48:22;100273.38;;;14.77;72.83
56604;BME280;42486;47.478;19.036;2022-10-22T13:51:28;100284.31;;;14.72;74.45
56604;BME280;42486;47.478;19.036;2022-10-22T13:54:34;100282.53;;;14.63;73.52
56604;BME280;42486;47.478;19.036;2022-10-22T13:57:47;100278.41;;;14.60;72.62
56604;BME280;42486;47.478;19.036;2022-10-22T14:00:52;100283.47;;;14.52;76.41
56604;BME280;42486;47.478;19.036;2022-10-22T14:04:11;100284.84;;;14.46;74.30
56604;BME280;42486;47.478;19.036;2022-10-22T14:07:18;100281.97;;;14.49;75.27
56604;BME280;42486;47.478;19.036;2022-10-22T14:10:22;100290.56;;;14.32;72.84
56604;BME280;42486;47.478;19.036;2022-10-22T14:13:26;100285.28;;;14.32;73.09
56604;BME280;42486;47.478;19.036;2022-10-22T14:16:32;100290.16;;;14.37;71.94
56604;BME280;42486;47.478;19.036;2022-10-22T14:19:35;100299.97;;;14.44;74.50
56604;BME280;42486;47.478;19.036;2022-10-22T14:22:38;100291.22;;;14.44;78.28
56604;BME280;42486;47.478;19.036;2022-10-22T14:25:39;100292.75;;;14.46;77.35
56604;BME280;42486;47.478;19.036;2022-10-22T14:28:42;100284.59;;;14.49;78.87
56604;BME280;42486;47.478;19.036;2022-10-22T14:32:16;100291.97;;;14.56;79.53
56604;BME280;42486;47.478;19.036;2022-10-22T14:35:30;100270.34;;;14.62;79.62
56604;BME280;42486;47.478;19.036;2022-10-22T14:38:33;100270.34;;;14.62;79.53
56604;BME280;42486;47.478;19.036;2022-10-22T14:41:40;100281.28;;;14.57;80.58
56604;BME280;42486;47.478;19.036;2022-10-22T14:44:43;100278.66;;;14.47;75.83
56604;BME280;42486;47.478;19.036;2022-10-22T14:47:52;100281.97;;;14.40;77.88
56604;BME280;42486;47.478;19.036;2022-10-22T14:51:03;100287.94;;;14.32;76.45
56604;BME280;42486;47.478;19.036;2022-10-22T14:54:05;100289.44;;;14.25;78.47
56604;BME280;42486;47.478;19.036;2022-10-22T14:57:16;100289.19;;;14.18;79.61
56604;BME280;42486;47.478;19.036;2022-10-22T15:00:24;100296.34;;;14.06;81.34
56604;BME280;42486;47.478;19.036;2022-10-22T15:03:27;100307.28;;;14.12;82.48
56604;BME280;42486;47.478;19.036;2022-10-22T15:06:30;100295.81;;;14.13;81.75
56604;BME280;42486;47.478;19.036;2022-10-22T15:09:32;100296.38;;;14.26;82.32
56604;BME280;42486;47.478;19.036;2022-10-22T15:12:36;100283.63;;;14.21;82.73
56604;BME280;42486;47.478;19.036;2022-10-22T15:15:40;100285.03;;;14.16;83.76
56604;BME280;42486;47.478;19.036;2022-10-22T15:18:57;100296.75;;;14.12;84.84
56604;BME280;42486;47.478;19.036;2022-10-22T15:22:00;100286.41;;;14.10;85.54
56604;BME280;42486;47.478;19.036;2022-10-22T15:25:07;100288.22;;;14.09;85.91
56604;BME280;42486;47.478;19.036;2022-10-22T15:28:14;100295.53;;;13.96;88.10
56604;BME280;42486;47.478;19.036;2022-10-22T15:34:56;100299.25;;;13.94;89.29
56604;BME280;42486;47.478;19.036;2022-10-22T15:38:11;100304.91;;;13.89;89.88
56604;BME280;42486;47.478;19.036;2022-10-22T15:41:15;100302.13;;;13.81;90.65
56604;BME280;42486;47.478;19.036;2022-10-22T15:44:22;100299.50;;;13.81;88.55
56604;BME280;42486;47.478;19.036;2022-10-22T15:47:28;100306.25;;;13.74;87.42
56604;BME280;42486;47.478;19.036;2022-10-22T15:50:42;100313.12;;;13.65;87.29
56604;BME280;42486;47.478;19.036;2022-10-22T15:53:52;100320.38;;;13.42;91.20
56604;BME280;42486;47.478;19.036;2022-10-22T15:56:55;100328.22;;;13.11;96.00
56604;BME280;42486;47.478;19.036;2022-10-22T15:59:59;100325.09;;;12.75;100.00
56604;BME280;42486;47.478;19.036;2022-10-22T16:03:03;100330.94;;;12.47;100.00
56604;BME280;42486;47.478;19.036;2022-10-22T16:06:17;100334.12;;;12.29;100.00
56604;BME280;42486;47.478;19.036;2022-10-22T16:09:23;100343.56;;;12.21;100.00
56604;BME280;42486;47.478;19.036;2022-10-22T16:12:28;100348.53;;;12.12;100.00
56604;BME280;42486;47.478;19.036;2022-10-22T16:15:37;100352.03;;;12.02;100.00
56604;BME280;42486;47.478;19.036;2022-10-22T16:18:43;100358.25;;;11.89;100.00
56604;BME280;42486;47.478;19.036;2022-10-22T16:21:48;100359.06;;;11.79;100.00
56604;BME280;42486;47.478;19.036;2022-10-22T16:24:58;100366.69;;;11.71;100.00
56604;BME280;42486;47.478;19.036;2022-10-22T16:28:05;100372.63;;;11.61;100.00
56604;BME280;42486;47.478;19.036;2022-10-22T16:31:09;100387.97;;;11.55;100.00
56604;BME280;42486;47.478;19.036;2022-10-22T16:34:14;100397.72;;;11.53;100.00
56604;BME280;42486;47.478;19.036;2022-10-22T16:37:16;100399.03;;;11.47;100.00
56604;BME280;42486;47.478;19.036;2022-10-22T16:40:17;100401.16;;;11.42;100.00
56604;BME280;42486;47.478;19.036;2022-10-22T16:43:19;100415.78;;;11.44;100.00
56604;BME280;42486;47.478;19.036;2022-10-22T16:46:21;100418.88;;;11.38;100.00
56604;BME280;42486;47.478;19.036;2022-10-22T16:49:23;100421.84;;;11.45;100.00
56604;BME280;42486;47.478;19.036;2022-10-22T16:52:26;100427.81;;;11.36;100.00
56604;BME280;42486;47.478;19.036;2022-10-22T16:55:28;100430.25;;;11.26;100.00
56604;BME280;42486;47.478;19.036;2022-10-22T16:58:29;100429.56;;;11.35;100.00
56604;BME280;42486;47.478;19.036;2022-10-22T17:01:31;100433.72;;;11.38;100.00
56604;BME280;42486;47.478;19.036;2022-10-22T17:04:40;100441.09;;;11.33;100.00
56604;BME280;42486;47.478;19.036;2022-10-22T17:07:42;100444.06;;;11.28;100.00
56604;BME280;42486;47.478;19.036;2022-10-22T17:10:43;100442.62;;;11.24;100.00
56604;BME280;42486;47.478;19.036;2022-10-22T17:13:46;100440.50;;;11.40;100.00
56604;BME280;42486;47.478;19.036;2022-10-22T17:16:49;100443.50;;;11.36;100.00
56604;BME280;42486;47.478;19.036;2022-10-22T17:19:54;100433.72;;;11.27;100.00
56604;BME280;42486;47.478;19.036;2022-10-22T17:22:56;100428.38;;;11.28;100.00
56604;BME280;42486;47.478;19.036;2022-10-22T17:25:58;100426.81;;;11.26;100.00
56604;BME280;42486;47.478;19.036;2022-10-22T17:29:00;100427.06;;;11.22;100.00
56604;BME280;42486;47.478;19.036;2022-10-22T17:32:02;100427.66;;;11.26;100.00
56604;BME280;42486;47.478;19.036;2022-10-22T17:35:04;100432.31;;;11.34;100.00
56604;BME280;42486;47.478;19.036;2022-10-22T17:38:07;100445.97;;;11.37;100.00
56604;BME280;42486;47.478;19.036;2022-10-22T17:41:09;100446.31;;;11.33;100.00
56604;BME280;42486;47.478;19.036;2022-10-22T17:44:15;100445.56;;;11.19;100.00
56604;BME280;42486;47.478;19.036;2022-10-22T17:47:17;100441.28;;;11.07;100.00
56604;BME280;42486;47.478;19.036;2022-10-22T17:50:19;100454.56;;;11.04;100.00
56604;BME280;42486;47.478;19.036;2022-10-22T17:53:21;100468.94;;;10.98;100.00